Time;durP1;ratioP1;P1;durP2;ratioP2;P2;SDS_P1;SDS_P2;PMS_P1;PMS_P2;Temp;Humidity;BMP_temperature;BMP_pressure;BME280_temperature;BME280_humidity;BME280_pressure;Samples;Min_cycle;Max_cycle;Signal;HPM_P1;HPM_P2
2023/07/28 00:02:01;;;;;;;5.85;2.28;;;;;;;16.96;100.00;100300.06;5021260;28;20199;-69
2023/07/28 00:04:27;;;;;;;4.57;2.13;;;;;;;16.89;100.00;100302.72;5045589;28;20411;-68
2023/07/28 00:06:52;;;;;;;2.60;2.17;;;;;;;16.79;100.00;100311.00;5014948;28;20056;-68
2023/07/28 00:09:18;;;;;;;5.72;2.58;;;;;;;16.77;100.00;100306.97;5045388;28;20074;-69
2023/07/28 00:11:43;;;;;;;7.40;3.13;;;;;;;16.81;100.00;100303.72;5048877;28;20565;-69
2023/07/28 00:14:09;;;;;;;6.00;1.90;;;;;;;16.85;100.00;100296.28;5046796;28;20048;-68
2023/07/28 00:16:34;;;;;;;5.78;2.42;;;;;;;16.79;100.00;100291.88;5027483;28;20695;-68
2023/07/28 00:19:00;;;;;;;3.05;2.13;;;;;;;16.87;100.00;100302.13;5014486;28;20037;-68
2023/07/28 00:21:26;;;;;;;6.80;2.72;;;;;;;16.81;100.00;100295.06;5043093;28;20187;-68
2023/07/28 00:23:52;;;;;;;3.35;1.98;;;;;;;16.83;100.00;100301.72;5047090;28;20033;-68
2023/07/28 00:26:17;;;;;;;3.80;2.03;;;;;;;16.83;100.00;100299.13;5013311;28;20553;-68
2023/07/28 00:28:43;;;;;;;7.75;2.63;;;;;;;16.83;100.00;100299.13;5027281;28;20068;-68
2023/07/28 00:31:08;;;;;;;6.00;2.20;;;;;;;16.72;100.00;100299.75;5037119;28;20029;-68
2023/07/28 00:33:34;;;;;;;4.55;2.03;;;;;;;16.79;100.00;100294.47;5014290;28;20446;-68
2023/07/28 00:35:59;;;;;;;6.28;2.22;;;;;;;16.78;100.00;100291.03;5022769;28;20045;-68
2023/07/28 00:38:25;;;;;;;7.70;2.30;;;;;;;16.75;100.00;100299.34;5026392;28;20065;-67
2023/07/28 00:40:50;;;;;;;4.35;2.45;;;;;;;16.73;100.00;100302.16;5025933;28;20379;-68
2023/07/28 00:43:16;;;;;;;3.72;2.05;;;;;;;16.71;100.00;100296.31;5027351;28;20479;-67
2023/07/28 00:45:41;;;;;;;3.33;2.15;;;;;;;16.71;100.00;100304.19;5013201;28;20040;-68
2023/07/28 00:48:12;;;;;;;3.03;2.28;;;;;;;16.68;100.00;100314.25;5027730;28;20025;-68
2023/07/28 00:50:39;;;;;;;5.22;2.53;;;;;;;16.70;100.00;100309.63;5027945;28;20029;-67
2023/07/28 00:53:04;;;;;;;5.40;2.33;;;;;;;16.76;100.00;100305.34;5026260;28;20020;-68
2023/07/28 00:55:30;;;;;;;3.65;2.33;;;;;;;16.74;100.00;100302.94;5029865;28;20080;-68
2023/07/28 00:57:56;;;;;;;8.18;3.17;;;;;;;16.78;100.00;100306.75;5029405;28;20099;-68
2023/07/28 01:00:22;;;;;;;4.65;2.40;;;;;;;16.73;100.00;100304.78;5025526;28;20067;-68
2023/07/28 01:02:47;;;;;;;3.38;2.60;;;;;;;16.70;100.00;100302.56;5043762;28;20044;-68
2023/07/28 01:05:13;;;;;;;4.13;2.63;;;;;;;16.79;100.00;100303.13;5042292;28;20064;-68
2023/07/28 01:08:05;;;;;;;4.72;2.47;;;;;;;16.73;100.00;100307.38;5050437;28;20127;-68
2023/07/28 01:10:32;;;;;;;4.33;2.70;;;;;;;16.71;100.00;100308.63;5040379;28;20033;-69
2023/07/28 01:12:58;;;;;;;5.05;2.72;;;;;;;16.79;100.00;100310.19;5045004;28;22284;-68
2023/07/28 01:15:24;;;;;;;5.00;2.33;;;;;;;16.76;100.00;100315.84;5028130;28;20020;-69
2023/07/28 01:17:50;;;;;;;5.68;2.92;;;;;;;16.73;100.00;100315.25;5024531;28;20494;-68
2023/07/28 01:20:16;;;;;;;4.22;3.45;;;;;;;16.73;100.00;100312.63;5025069;28;20495;-68
2023/07/28 01:22:54;;;;;;;5.75;2.90;;;;;;;16.73;100.00;100320.47;5042030;28;20045;-68
2023/07/28 01:25:43;;;;;;;6.50;3.45;;;;;;;16.76;100.00;100315.84;5029117;28;20036;-68
2023/07/28 01:28:10;;;;;;;4.13;2.85;;;;;;;16.74;100.00;100319.47;5028614;28;20040;-68
2023/07/28 01:30:36;;;;;;;5.80;2.85;;;;;;;16.72;100.00;100312.81;5009885;28;20032;-68
2023/07/28 01:33:06;;;;;;;3.95;2.53;;;;;;;16.71;100.00;100308.63;5044599;28;20367;-69
2023/07/28 01:35:32;;;;;;;5.82;2.97;;;;;;;16.78;100.00;100306.75;5044379;28;20393;-68
2023/07/28 01:37:57;;;;;;;6.57;2.15;;;;;;;16.75;100.00;100309.81;5014952;28;20036;-68
2023/07/28 01:40:23;;;;;;;2.97;2.45;;;;;;;16.75;100.00;100315.03;5014742;28;20025;-68
2023/07/28 01:42:48;;;;;;;2.90;2.00;;;;;;;16.74;100.00;100309.00;5045461;28;20048;-69
2023/07/28 01:45:14;;;;;;;3.58;2.67;;;;;;;16.72;100.00;100318.84;5027259;28;20037;-68
2023/07/28 01:47:39;;;;;;;3.08;2.40;;;;;;;16.77;100.00;100317.47;5042160;28;20041;-68
2023/07/28 01:50:05;;;;;;;3.10;2.40;;;;;;;16.70;100.00;100317.47;5036444;28;20033;-68
2023/07/28 01:52:31;;;;;;;3.22;2.42;;;;;;;16.76;100.00;100319.25;5024600;28;20481;-69
2023/07/28 01:54:56;;;;;;;4.05;2.15;;;;;;;16.78;100.00;100309.38;5029809;28;20032;-68
2023/07/28 01:57:24;;;;;;;2.60;2.10;;;;;;;16.72;100.00;100311.00;5028367;28;20036;-69
2023/07/28 01:59:49;;;;;;;2.75;2.00;;;;;;;16.77;100.00;100309.59;5026125;28;20036;-69
2023/07/28 02:02:15;;;;;;;6.45;2.40;;;;;;;16.75;100.00;100309.81;5044468;28;20037;-69
2023/07/28 02:04:40;;;;;;;2.60;1.98;;;;;;;16.74;100.00;100313.41;5045318;28;20052;-69
2023/07/28 02:07:06;;;;;;;3.45;2.22;;;;;;;16.76;100.00;100307.97;5030011;28;20043;-68
2023/07/28 02:09:31;;;;;;;3.97;2.80;;;;;;;16.71;100.00;100309.41;5025518;28;20048;-69
2023/07/28 02:11:57;;;;;;;4.70;2.25;;;;;;;16.76;100.00;100307.97;5039553;28;20098;-68
2023/07/28 02:14:22;;;;;;;3.03;2.05;;;;;;;16.72;100.00;100315.44;5010623;28;20028;-69
2023/07/28 02:16:48;;;;;;;3.03;1.75;;;;;;;16.70;100.00;100314.84;5025959;28;20052;-69
2023/07/28 02:19:13;;;;;;;2.92;2.10;;;;;;;16.76;100.00;100316.63;5043909;28;20033;-68
2023/07/28 02:21:39;;;;;;;4.10;2.15;;;;;;;16.71;100.00;100312.03;5047549;28;20040;-69
2023/07/28 02:24:04;;;;;;;2.30;1.83;;;;;;;16.72;100.00;100318.84;5027318;28;20040;-69
2023/07/28 02:26:30;;;;;;;2.45;2.17;;;;;;;16.85;100.00;100315.41;5038098;28;20028;-69
2023/07/28 02:28:55;;;;;;;2.50;1.95;;;;;;;16.81;100.00;100318.63;5043580;28;20490;-69
2023/07/28 02:31:21;;;;;;;3.05;1.63;;;;;;;16.77;100.00;100320.06;5024608;28;20044;-69
2023/07/28 02:33:47;;;;;;;5.30;2.30;;;;;;;16.73;100.00;100322.28;5028236;28;20115;-68
2023/07/28 02:36:12;;;;;;;2.75;2.03;;;;;;;16.74;100.00;100323.88;5009818;28;20503;-68
2023/07/28 02:38:37;;;;;;;2.53;2.05;;;;;;;16.79;100.00;100326.69;5026548;28;20717;-69
2023/07/28 02:41:03;;;;;;;5.80;1.90;;;;;;;16.83;100.00;100327.13;5024612;28;21320;-69
2023/07/28 02:43:29;;;;;;;2.60;1.80;;;;;;;16.81;100.00;100321.25;5027316;28;20032;-69
2023/07/28 02:45:57;;;;;;;1.88;1.67;;;;;;;16.74;100.00;100316.88;5016535;28;20048;-69
2023/07/28 02:48:23;;;;;;;3.08;1.70;;;;;;;16.72;100.00;100328.53;5042954;28;20165;-69
2023/07/28 02:50:52;;;;;;;4.72;2.50;;;;;;;16.72;100.00;100342.41;5044252;28;20045;-69
2023/07/28 02:53:17;;;;;;;2.70;1.90;;;;;;;16.77;100.00;100338.41;5042751;28;20091;-69
2023/07/28 02:55:43;;;;;;;1.83;1.65;;;;;;;16.74;100.00;100350.06;5040303;28;20531;-69
2023/07/28 02:58:09;;;;;;;6.45;2.40;;;;;;;16.76;100.00;100350.66;5041018;28;20032;-69
2023/07/28 03:00:42;;;;;;;2.70;1.88;;;;;;;16.76;100.00;100352.47;5024044;28;20056;-70
2023/07/28 03:03:12;;;;;;;3.10;1.92;;;;;;;16.74;100.00;100356.13;5008858;28;20032;-69
2023/07/28 03:05:40;;;;;;;2.72;2.13;;;;;;;16.80;100.00;100362.34;5023968;28;20768;-69
2023/07/28 03:08:23;;;;;;;2.17;1.67;;;;;;;16.82;100.00;100355.13;5042338;28;20037;-68
2023/07/28 03:10:48;;;;;;;2.40;1.52;;;;;;;16.77;100.00;100364.56;5023923;28;20391;-69
2023/07/28 03:13:14;;;;;;;1.92;1.50;;;;;;;16.76;100.00;100360.34;5029347;28;20518;-69
2023/07/28 03:15:39;;;;;;;1.63;1.42;;;;;;;16.76;100.00;100369.00;5041081;28;20037;-69
2023/07/28 03:18:05;;;;;;;3.50;1.20;;;;;;;16.77;100.00;100368.00;5025928;28;20028;-68
2023/07/28 03:20:31;;;;;;;1.65;1.10;;;;;;;16.74;100.00;100374.44;5007125;28;20051;-69
2023/07/28 03:22:56;;;;;;;1.60;1.30;;;;;;;16.80;100.00;100364.16;5028959;28;20049;-69
2023/07/28 03:25:22;;;;;;;2.83;1.60;;;;;;;16.79;100.00;100368.59;5008905;28;20032;-69
2023/07/28 03:27:47;;;;;;;4.40;1.75;;;;;;;16.77;100.00;100372.44;5044624;28;20055;-69
2023/07/28 03:30:13;;;;;;;2.53;1.50;;;;;;;16.82;100.00;100368.22;5045473;28;20033;-69
2023/07/28 03:32:39;;;;;;;3.30;1.63;;;;;;;16.87;100.00;100367.56;5009989;28;20045;-69
2023/07/28 03:35:05;;;;;;;5.00;1.55;;;;;;;16.84;100.00;100365.34;5010968;28;20048;-69
2023/07/28 03:37:34;;;;;;;1.58;1.45;;;;;;;16.90;100.00;100360.09;5022442;28;20034;-69
2023/07/28 03:40:01;;;;;;;6.43;1.80;;;;;;;16.85;100.00;100354.69;5026786;28;20036;-69
2023/07/28 03:42:37;;;;;;;1.70;1.50;;;;;;;16.81;100.00;100358.72;5024032;28;20052;-69
2023/07/28 03:45:03;;;;;;;1.85;1.42;;;;;;;16.81;100.00;100366.56;5042132;28;20024;-69
2023/07/28 03:47:29;;;;;;;3.83;1.60;;;;;;;16.86;100.00;100373.84;5024378;28;20131;-69
2023/07/28 03:49:54;;;;;;;1.50;1.40;;;;;;;16.81;100.00;100376.22;5027602;28;20032;-69
2023/07/28 03:52:20;;;;;;;4.88;1.70;;;;;;;16.83;100.00;100385.50;5026689;28;20709;-69
2023/07/28 03:54:45;;;;;;;2.50;1.50;;;;;;;16.82;100.00;100386.53;5041514;28;20029;-69
2023/07/28 03:57:11;;;;;;;1.73;1.40;;;;;;;16.82;100.00;100385.69;5024297;28;20033;-69
2023/07/28 03:59:36;;;;;;;3.75;2.03;;;;;;;16.83;100.00;100384.72;5045687;28;20185;-69
2023/07/28 04:02:02;;;;;;;4.20;1.50;;;;;;;16.84;100.00;100381.91;5027871;28;20040;-69
2023/07/28 04:04:28;;;;;;;3.42;2.20;;;;;;;16.85;100.00;100388.72;5030534;23;20037;-70
2023/07/28 04:06:53;;;;;;;1.77;1.67;;;;;;;16.91;100.00;100380.06;5015250;28;20458;-69
2023/07/28 04:09:19;;;;;;;2.53;1.55;;;;;;;16.90;100.00;100375.03;5002725;28;20029;-69
2023/07/28 04:11:45;;;;;;;2.00;1.50;;;;;;;17.03;100.00;100374.97;5027384;28;20048;-69
2023/07/28 04:14:12;;;;;;;2.72;1.40;;;;;;;16.93;100.00;100367.56;5031323;28;20040;-69
2023/07/28 04:16:37;;;;;;;1.85;1.45;;;;;;;16.90;100.00;100381.06;4997607;28;20071;-70
2023/07/28 04:19:03;;;;;;;2.22;1.70;;;;;;;16.94;100.00;100373.59;5010359;28;20033;-69
2023/07/28 04:21:29;;;;;;;2.13;1.80;;;;;;;16.91;100.00;100374.81;4996949;28;20061;-70
2023/07/28 04:23:55;;;;;;;2.35;1.38;;;;;;;16.98;100.00;100372.16;4996839;28;20040;-70
2023/07/28 04:26:25;;;;;;;4.32;1.58;;;;;;;16.94;100.00;100368.34;5014991;28;20032;-69
2023/07/28 04:28:56;;;;;;;3.78;1.60;;;;;;;16.93;100.00;100385.06;5012301;28;20087;-69
2023/07/28 04:31:22;;;;;;;3.38;1.40;;;;;;;16.90;100.00;100386.28;5008783;28;20030;-70
2023/07/28 04:33:53;;;;;;;3.70;1.77;;;;;;;16.99;100.00;100392.13;5014062;28;20030;-70
2023/07/28 04:36:19;;;;;;;6.72;2.47;;;;;;;16.99;100.00;100389.50;5013261;28;20088;-70
2023/07/28 04:38:45;;;;;;;3.47;1.80;;;;;;;17.03;100.00;100388.06;5012263;28;20021;-69
2023/07/28 04:41:10;;;;;;;6.38;2.47;;;;;;;17.07;100.00;100381.38;4996754;28;20033;-69
2023/07/28 04:43:47;;;;;;;6.13;2.00;;;;;;;17.05;100.00;100382.63;5010256;28;20025;-69
2023/07/28 04:46:13;;;;;;;3.63;1.67;;;;;;;17.04;100.00;100379.19;5005734;28;20032;-70
2023/07/28 04:48:39;;;;;;;6.82;2.05;;;;;;;17.01;100.00;100386.66;5028580;28;20120;-69
2023/07/28 04:51:25;;;;;;;4.38;1.55;;;;;;;17.05;100.00;100382.63;5010647;28;20038;-70
2023/07/28 04:54:09;;;;;;;1.92;1.20;;;;;;;17.06;100.00;100394.69;5030918;28;20090;-69
2023/07/28 04:56:34;;;;;;;5.38;1.98;;;;;;;17.05;100.00;100398.34;5011342;28;20042;-70
2023/07/28 04:59:00;;;;;;;2.13;1.33;;;;;;;17.01;100.00;100397.94;5010980;28;20033;-70
2023/07/28 05:01:26;;;;;;;4.15;1.40;;;;;;;17.15;100.00;100395.25;5011186;28;20049;-69
2023/07/28 05:03:51;;;;;;;2.95;1.50;;;;;;;17.09;100.00;100386.41;5010738;28;20049;-70
2023/07/28 05:06:22;;;;;;;3.58;1.77;;;;;;;17.08;100.00;100395.28;4996333;28;20142;-70
2023/07/28 05:08:47;;;;;;;2.35;1.63;;;;;;;17.09;100.00;100399.53;5014213;28;20551;-69
2023/07/28 05:11:19;;;;;;;5.00;1.40;;;;;;;17.15;100.00;100409.16;5005731;28;20033;-69
2023/07/28 05:13:47;;;;;;;2.28;1.50;;;;;;;17.11;100.00;100402.72;5013055;28;20029;-70
2023/07/28 05:16:12;;;;;;;3.13;1.45;;;;;;;17.17;100.00;100412.38;5014285;28;20059;-69
2023/07/28 05:18:56;;;;;;;2.70;1.80;;;;;;;17.18;100.00;100419.22;5023825;28;20124;-70
2023/07/28 05:21:40;;;;;;;5.25;2.22;;;;;;;17.21;100.00;100418.00;5025396;28;20486;-70
2023/07/28 05:24:08;;;;;;;3.03;1.63;;;;;;;17.19;100.00;100415.56;5008791;28;20032;-70
2023/07/28 05:26:35;;;;;;;3.20;2.10;;;;;;;17.18;100.00;100416.59;5007944;28;20228;-70
2023/07/28 05:29:01;;;;;;;2.45;1.80;;;;;;;17.26;100.00;100421.59;5011742;28;20038;-71
2023/07/28 05:31:27;;;;;;;5.50;1.98;;;;;;;17.20;100.00;100424.25;5010170;28;20423;-70
2023/07/28 05:33:53;;;;;;;3.90;1.88;;;;;;;17.30;100.00;100432.47;5012738;28;20059;-70
2023/07/28 05:36:20;;;;;;;2.15;1.20;;;;;;;17.22;100.00;100425.66;5007318;28;20036;-69
2023/07/28 05:38:46;;;;;;;2.72;2.22;;;;;;;17.31;100.00;100431.47;4997507;28;20058;-70
2023/07/28 05:41:11;;;;;;;2.97;1.80;;;;;;;17.30;100.00;100421.97;5025207;28;20428;-70
2023/07/28 05:43:37;;;;;;;7.53;2.75;;;;;;;17.30;100.00;100432.47;5011518;28;20033;-69
2023/07/28 05:46:03;;;;;;;4.03;2.00;;;;;;;17.35;100.00;100424.78;5007669;28;20029;-70
2023/07/28 05:48:32;;;;;;;3.17;2.17;;;;;;;17.35;100.00;100429.22;4994511;28;20029;-69
2023/07/28 05:50:58;;;;;;;3.58;2.17;;;;;;;17.28;100.00;100426.63;5009232;28;20499;-70
2023/07/28 05:53:23;;;;;;;3.10;2.28;;;;;;;17.35;100.00;100427.41;5026661;28;20033;-70
2023/07/28 05:55:53;;;;;;;3.92;2.30;;;;;;;17.36;100.00;100433.44;5007949;28;20092;-70
2023/07/28 05:58:19;;;;;;;5.68;2.65;;;;;;;17.38;100.00;100434.03;5012345;28;20024;-70
2023/07/28 06:00:45;;;;;;;5.57;2.58;;;;;;;17.41;100.00;100429.19;5009188;28;20419;-70
2023/07/28 06:03:29;;;;;;;3.78;2.13;;;;;;;17.53;100.00;100442.41;5023408;28;20026;-70
2023/07/28 06:06:05;;;;;;;3.42;2.00;;;;;;;17.45;100.00;100435.59;5007725;28;20069;-70
2023/07/28 06:08:30;;;;;;;4.47;2.10;;;;;;;17.49;100.00;100452.50;4994512;28;20025;-70
2023/07/28 06:10:56;;;;;;;3.50;2.10;;;;;;;17.46;100.00;100450.34;5007002;28;20794;-70
2023/07/28 06:13:21;;;;;;;4.03;2.00;;;;;;;17.43;100.00;100452.56;5023767;28;20036;-70
2023/07/28 06:15:47;;;;;;;1.70;1.45;;;;;;;17.49;100.00;100447.28;5005198;28;20411;-70
2023/07/28 06:18:13;;;;;;;2.35;1.70;;;;;;;17.54;100.00;100444.03;4992444;28;20053;-69
2023/07/28 06:20:42;;;;;;;9.02;2.00;;;;;;;17.54;100.00;100451.91;4986207;28;20063;-69
2023/07/28 06:23:08;;;;;;;7.88;1.80;;;;;;;17.57;100.00;100456.72;5008298;28;20112;-70
2023/07/28 06:25:34;;;;;;;3.22;1.90;;;;;;;17.52;100.00;100449.50;5013820;28;20488;-72
2023/07/28 06:28:06;;;;;;;10.57;2.55;;;;;;;17.67;100.00;100446.59;4994374;28;20082;-69
2023/07/28 06:30:31;;;;;;;5.97;2.70;;;;;;;17.60;100.00;100447.63;5028237;28;20029;-69
2023/07/28 06:32:57;;;;;;;5.55;3.55;;;;;;;17.58;100.00;100453.09;5006292;28;20033;-70
2023/07/28 06:35:22;;;;;;;7.57;3.80;;;;;;;17.57;100.00;100448.06;4993483;28;20037;-70
2023/07/28 06:37:48;;;;;;;8.02;4.65;;;;;;;17.61;100.00;100452.69;5008228;28;20030;-70
2023/07/28 06:40:14;;;;;;;6.70;4.22;;;;;;;17.59;100.00;100459.91;5005556;28;20029;-70
2023/07/28 06:42:40;;;;;;;7.88;4.13;;;;;;;17.62;100.00;100467.38;5008948;28;20043;-69
2023/07/28 06:45:06;;;;;;;8.00;5.78;;;;;;;17.68;100.00;100463.91;4989506;28;20037;-72
2023/07/28 06:47:32;;;;;;;5.88;4.15;;;;;;;17.70;100.00;100468.94;5007801;28;20040;-72
2023/07/28 06:49:58;;;;;;;6.07;4.00;;;;;;;17.75;100.00;100463.09;5006610;28;20075;-72
2023/07/28 06:52:23;;;;;;;5.10;4.25;;;;;;;17.75;100.00;100468.31;5012937;28;20102;-71
2023/07/28 06:54:49;;;;;;;5.93;3.88;;;;;;;17.80;100.00;100468.47;5026293;28;20033;-71
2023/07/28 06:57:15;;;;;;;5.45;3.75;;;;;;;17.87;100.00;100470.06;4990755;28;20566;-71
2023/07/28 06:59:41;;;;;;;5.00;3.33;;;;;;;17.85;100.00;100479.97;5008418;28;20068;-72
2023/07/28 07:02:07;;;;;;;12.50;3.88;;;;;;;17.95;100.00;100476.91;5009063;28;20046;-71
2023/07/28 07:04:32;;;;;;;2.92;2.25;;;;;;;17.92;100.00;100479.94;4996803;28;20048;-71
2023/07/28 07:06:58;;;;;;;2.10;1.70;;;;;;;18.06;100.00;100480.63;5011102;28;20045;-71
2023/07/28 07:09:24;;;;;;;2.28;1.77;;;;;;;18.10;100.00;100473.94;4993436;28;20033;-72
2023/07/28 07:11:50;;;;;;;2.30;1.50;;;;;;;18.01;100.00;100475.25;5008129;28;20076;-69
2023/07/28 07:14:16;;;;;;;1.77;1.27;;;;;;;18.01;100.00;100473.41;5010250;28;20171;-70
2023/07/28 07:16:41;;;;;;;1.33;0.90;;;;;;;18.09;100.00;100482.84;5022748;28;20037;-69
2023/07/28 07:19:08;;;;;;;1.80;0.80;;;;;;;18.17;100.00;100484.41;5008777;28;20044;-69
2023/07/28 07:21:34;;;;;;;1.95;1.25;;;;;;;18.16;100.00;100482.78;5003227;28;20537;-70
2023/07/28 07:24:00;;;;;;;1.65;1.20;;;;;;;18.08;100.00;100483.84;5005258;28;20045;-69
2023/07/28 07:26:25;;;;;;;1.48;1.10;;;;;;;18.12;100.00;100478.97;5007542;28;20117;-70
2023/07/28 07:28:50;;;;;;;4.07;1.25;;;;;;;18.25;100.00;100481.50;5010579;28;20041;-69
2023/07/28 07:31:16;;;;;;;2.55;1.27;;;;;;;18.34;100.00;100477.59;5006366;28;20042;-69
2023/07/28 07:33:42;;;;;;;6.30;1.60;;;;;;;18.40;100.00;100468.06;5010120;28;20507;-70
2023/07/28 07:36:18;;;;;;;3.20;1.73;;;;;;;18.23;100.00;100467.78;5023474;28;20034;-70
2023/07/28 07:38:48;;;;;;;4.85;2.05;;;;;;;18.20;100.00;100468.25;5031095;28;20034;-69
2023/07/28 07:41:20;;;;;;;3.20;1.90;;;;;;;18.33;100.00;100469.94;5025130;28;20052;-70
2023/07/28 07:43:47;;;;;;;3.67;2.10;;;;;;;18.28;100.00;100465.34;5024826;28;20114;-69
2023/07/28 07:46:14;;;;;;;3.55;2.08;;;;;;;18.32;100.00;100478.84;5008464;28;20597;-69
2023/07/28 07:48:39;;;;;;;4.70;2.70;;;;;;;18.28;100.00;100471.38;5011767;28;20033;-69
2023/07/28 07:51:05;;;;;;;4.85;2.88;;;;;;;18.29;100.00;100472.22;5026620;28;20042;-70
2023/07/28 07:53:30;;;;;;;5.80;2.47;;;;;;;18.38;100.00;100475.34;4992216;28;20025;-69
2023/07/28 07:55:56;;;;;;;5.15;2.80;;;;;;;18.26;100.00;100470.78;5028452;28;20049;-69
2023/07/28 07:58:21;;;;;;;6.43;3.28;;;;;;;18.31;100.00;100485.91;5027462;28;20037;-70
2023/07/28 08:00:47;;;;;;;4.68;3.15;;;;;;;18.34;100.00;100482.03;5006469;28;20034;-69
2023/07/28 08:03:12;;;;;;;3.88;2.50;;;;;;;18.36;100.00;100477.38;5008919;28;20060;-69
2023/07/28 08:05:37;;;;;;;7.05;3.17;;;;;;;18.34;100.00;100482.03;5004856;28;20086;-70
2023/07/28 08:08:05;;;;;;;4.72;2.45;;;;;;;18.24;100.00;100482.53;5012844;28;20048;-69
2023/07/28 08:10:30;;;;;;;4.65;2.88;;;;;;;18.21;100.00;100480.31;4993358;28;20029;-70
2023/07/28 08:12:56;;;;;;;6.60;2.90;;;;;;;18.20;100.00;100481.38;5011488;28;20454;-69
2023/07/28 08:15:21;;;;;;;3.67;2.50;;;;;;;18.26;100.00;100483.91;5005871;28;20395;-69
2023/07/28 08:17:47;;;;;;;4.22;2.97;;;;;;;18.24;100.00;100482.53;5021483;28;20029;-69
2023/07/28 08:20:12;;;;;;;4.47;2.97;;;;;;;18.32;100.00;100498.00;5023831;28;20365;-70
2023/07/28 08:22:38;;;;;;;7.40;2.67;;;;;;;18.41;100.00;100491.47;5004231;28;20119;-69
2023/07/28 08:25:04;;;;;;;8.40;3.53;;;;;;;18.50;100.00;100494.63;5002455;28;20037;-68
2023/07/28 08:27:30;;;;;;;4.97;2.80;;;;;;;18.52;100.00;100486.56;5008696;28;20057;-69
2023/07/28 08:29:55;;;;;;;3.63;2.60;;;;;;;18.60;100.00;100491.50;5011486;28;20573;-69
2023/07/28 08:32:21;;;;;;;3.05;2.60;;;;;;;18.61;100.00;100480.81;5009840;28;20037;-69
2023/07/28 08:34:48;;;;;;;7.07;2.55;;;;;;;18.70;100.00;100485.75;5010895;28;20056;-69
2023/07/28 08:37:13;;;;;;;7.13;2.90;;;;;;;18.81;100.00;100480.63;5002998;28;20048;-69
2023/07/28 08:39:39;;;;;;;3.85;2.88;;;;;;;18.84;100.00;100484.66;5023635;28;20036;-70
2023/07/28 08:42:05;;;;;;;2.88;2.35;;;;;;;18.83;100.00;100489.06;5010249;28;20053;-69
2023/07/28 08:44:32;;;;;;;4.55;2.75;;;;;;;18.84;100.00;100492.53;5026892;28;20041;-69
2023/07/28 08:46:59;;;;;;;6.28;2.80;;;;;;;18.89;100.00;100494.50;5023904;28;20387;-69
2023/07/28 08:49:25;;;;;;;4.25;2.58;;;;;;;18.91;100.00;100488.00;5025042;28;20033;-69
2023/07/28 08:51:51;;;;;;;5.93;3.15;;;;;;;18.86;100.00;100491.28;5013421;28;20827;-69
2023/07/28 08:54:16;;;;;;;4.18;2.63;;;;;;;18.89;100.00;100490.03;5025362;28;20136;-69
2023/07/28 08:56:45;;;;;;;4.40;2.92;;;;;;;18.96;100.00;100495.22;5025938;28;20056;-69
2023/07/28 08:59:10;;;;;;;4.65;2.22;;;;;;;18.93;100.00;100493.03;5029125;28;20123;-69
2023/07/28 09:01:40;;;;;;;3.83;2.72;;;;;;;19.05;100.00;100497.34;5004970;28;20045;-69
2023/07/28 09:04:10;;;;;;;3.50;2.80;;;;;;;19.19;100.00;100495.38;5022316;28;20049;-70
2023/07/28 09:06:36;;;;;;;4.45;2.58;;;;;;;19.39;100.00;100487.22;4989099;28;20038;-68
2023/07/28 09:09:01;;;;;;;6.75;2.85;;;;;;;19.52;100.00;100491.53;5009091;28;21723;-69
2023/07/28 09:11:27;;;;;;;5.43;2.55;;;;;;;19.56;100.00;100495.31;5020159;28;20057;-68
2023/07/28 09:13:54;;;;;;;3.30;2.50;;;;;;;19.54;100.00;100489.47;5019371;28;20033;-69
2023/07/28 09:16:21;;;;;;;3.50;2.25;;;;;;;19.58;100.00;100487.19;5008695;28;20130;-69
2023/07/28 09:18:47;;;;;;;6.32;2.30;;;;;;;19.62;100.00;100491.78;5008449;28;20052;-69
2023/07/28 09:21:17;;;;;;;7.30;2.47;;;;;;;19.76;100.00;100495.09;5009533;28;20034;-69
2023/07/28 09:23:43;;;;;;;5.57;2.38;;;;;;;19.84;100.00;100493.97;5006342;28;20041;-69
2023/07/28 09:26:09;;;;;;;3.65;2.28;;;;;;;19.97;100.00;100493.75;5009220;28;20056;-69
2023/07/28 09:28:41;;;;;;;5.25;2.15;;;;;;;20.13;100.00;100483.59;5021505;28;20068;-69
2023/07/28 09:31:07;;;;;;;3.28;1.90;;;;;;;20.38;100.00;100478.94;5026054;28;20030;-69
2023/07/28 09:33:35;;;;;;;2.03;1.70;;;;;;;20.56;100.00;100480.63;5005144;28;20268;-69
2023/07/28 09:36:11;;;;;;;4.18;1.60;;;;;;;20.65;100.00;100473.22;5020099;28;20040;-69
2023/07/28 09:38:41;;;;;;;2.65;1.60;;;;;;;20.69;100.00;100476.22;5022010;28;20040;-69
2023/07/28 09:41:10;;;;;;;4.07;1.83;;;;;;;20.64;100.00;100476.09;5000021;28;20033;-69
2023/07/28 09:43:39;;;;;;;6.38;1.40;;;;;;;20.65;100.00;100475.88;5025024;28;20041;-70
2023/07/28 09:46:07;;;;;;;5.50;1.20;;;;;;;20.58;100.00;100483.84;5022030;28;20605;-69
2023/07/28 09:48:33;;;;;;;3.88;1.80;;;;;;;20.56;100.00;100483.28;5007124;28;20025;-69
2023/07/28 09:51:09;;;;;;;2.60;1.30;;;;;;;20.55;100.00;100479.06;5002721;28;20045;-69
2023/07/28 09:53:40;;;;;;;2.20;1.65;;;;;;;20.63;100.00;100483.19;5022929;28;20533;-70
2023/07/28 09:56:08;;;;;;;1.65;1.23;;;;;;;20.67;100.00;100471.16;5018528;28;20049;-70
2023/07/28 09:58:38;;;;;;;1.80;1.30;;;;;;;20.66;100.00;100480.09;5009495;28;20117;-70
2023/07/28 10:01:05;;;;;;;1.20;1.10;;;;;;;20.72;100.00;100479.19;5008013;28;20053;-70
2023/07/28 10:03:32;;;;;;;1.70;1.30;;;;;;;20.78;100.00;100473.00;5007663;28;20041;-69
2023/07/28 10:05:58;;;;;;;4.53;1.05;;;;;;;20.94;100.00;100474.09;5023500;28;20092;-70
2023/07/28 10:08:24;;;;;;;4.13;1.13;;;;;;;21.06;100.00;100468.81;4994948;28;20441;-70
2023/07/28 10:10:52;;;;;;;2.13;1.20;;;;;;;21.08;100.00;100474.66;5009886;28;20499;-69
2023/07/28 10:13:22;;;;;;;2.30;1.30;;;;;;;21.10;100.00;100469.16;5010180;28;20538;-69
2023/07/28 10:15:48;;;;;;;1.40;1.25;;;;;;;21.08;100.00;100471.19;5023560;28;20771;-71
2023/07/28 10:18:14;;;;;;;3.40;1.25;;;;;;;21.40;100.00;100463.66;5007623;28;20025;-69
2023/07/28 10:20:42;;;;;;;3.50;0.90;;;;;;;21.47;100.00;100472.22;5021370;28;20561;-70
2023/07/28 10:23:16;;;;;;;2.03;1.00;;;;;;;21.51;100.00;100462.00;5008537;28;20039;-70
2023/07/28 10:25:44;;;;;;;4.85;0.93;;;;;;;21.82;100.00;100471.28;5007324;28;20538;-70
2023/07/28 10:28:32;;;;;;;0.90;0.85;;;;;;;21.86;100.00;100475.03;5023099;28;20076;-70
2023/07/28 10:30:59;;;;;;;5.82;1.08;;;;;;;21.81;100.00;100463.59;5021166;28;20061;-70
2023/07/28 10:33:33;;;;;;;1.52;0.75;;;;;;;21.78;100.00;100464.88;5007481;28;20494;-70
2023/07/28 10:36:10;;;;;;;2.22;1.45;;;;;;;21.71;100.00;100470.28;5024708;28;20053;-70
2023/07/28 10:38:36;;;;;;;1.27;0.80;;;;;;;21.65;100.00;100473.09;4988779;28;20050;-70
2023/07/28 10:41:05;;;;;;;5.93;0.90;;;;;;;21.55;100.00;100477.16;5006276;28;20047;-70
2023/07/28 10:43:31;;;;;;;1.10;0.60;;;;;;;21.45;100.00;100481.44;5006333;28;20041;-70
2023/07/28 10:45:56;;;;;;;1.58;0.75;;;;;;;21.41;100.00;100481.06;5023531;28;20037;-70
2023/07/28 10:48:22;;;;;;;1.10;0.60;;;;;;;21.35;100.00;100482.00;5007129;28;20029;-70
2023/07/28 10:50:49;;;;;;;1.23;0.60;;;;;;;21.25;100.00;100482.63;5004703;28;20033;-70
2023/07/28 10:53:15;;;;;;;2.88;0.80;;;;;;;21.25;100.00;100485.25;5025450;28;20036;-70
2023/07/28 10:55:41;;;;;;;0.70;0.40;;;;;;;21.65;100.00;100484.44;4992209;28;20041;-69
2023/07/28 10:58:06;;;;;;;2.67;1.33;;;;;;;22.16;100.00;100476.56;5005939;28;20017;-70
2023/07/28 11:00:32;;;;;;;2.45;0.60;;;;;;;22.46;100.00;100478.09;5023021;28;20041;-70
2023/07/28 11:02:57;;;;;;;1.25;0.70;;;;;;;22.55;100.00;100477.44;5024544;28;20042;-70
2023/07/28 11:05:26;;;;;;;4.97;0.80;;;;;;;22.40;100.00;100474.56;5028683;28;20021;-70
2023/07/28 11:07:54;;;;;;;1.30;0.70;;;;;;;22.09;100.00;100482.00;5005958;28;20049;-70
2023/07/28 11:10:20;;;;;;;3.25;0.77;;;;;;;21.90;100.00;100493.81;4988775;28;21470;-70
2023/07/28 11:12:48;;;;;;;4.55;0.98;;;;;;;21.51;100.00;100506.84;5007607;28;20049;-70
2023/07/28 11:15:15;;;;;;;2.50;1.20;;;;;;;21.44;100.00;100507.00;4996247;28;20049;-70
2023/07/28 11:17:44;;;;;;;0.82;0.65;;;;;;;21.37;100.00;100482.56;5026994;28;20079;-70